createdAt,value
2023-02-02T00:00:27.463Z,0
2023-02-02T00:01:30.916Z,0
2023-02-02T00:03:37.471Z,0
2023-02-02T00:05:42.731Z,0
2023-02-02T00:07:49.853Z,0
2023-02-02T00:08:52.553Z,0
2023-02-02T00:10:59.032Z,0
2023-02-02T00:13:05.285Z,0
2023-02-02T00:15:12.170Z,0
2023-02-02T00:16:16.279Z,0
2023-02-02T00:18:23.187Z,0
2023-02-02T00:20:28.888Z,0
2023-02-02T00:22:36.428Z,0
2023-02-02T00:23:39.701Z,0
2023-02-02T00:25:46.510Z,0
2023-02-02T00:27:53.316Z,0
2023-02-02T00:29:59.775Z,0
2023-02-02T00:31:03.911Z,0
2023-02-02T00:32:07.670Z,0
2023-02-02T00:33:11.342Z,0
2023-02-02T00:35:18.688Z,0
2023-02-02T00:36:22.046Z,0
2023-02-02T00:37:24.882Z,0
2023-02-02T00:38:28.805Z,0
2023-02-02T00:40:34.330Z,0
2023-02-02T00:41:37.695Z,0
2023-02-02T00:42:41.670Z,0
2023-02-02T00:43:44.680Z,0
2023-02-02T00:45:51.370Z,0
2023-02-02T00:46:54.423Z,0
2023-02-02T00:47:57.800Z,0
2023-02-02T00:49:01.524Z,0
2023-02-02T00:51:08.209Z,0
2023-02-02T00:53:14.944Z,0
2023-02-02T00:54:18.645Z,0
2023-02-02T00:56:25.039Z,0
2023-02-02T00:58:31.281Z,0
2023-02-02T01:00:37.521Z,0
2023-02-02T01:01:40.962Z,0
2023-02-02T01:03:48.111Z,0
2023-02-02T01:05:54.616Z,0
2023-02-02T01:08:01.738Z,0
2023-02-02T01:09:04.607Z,0
2023-02-02T01:11:11.909Z,0
2023-02-02T01:13:17.489Z,0
2023-02-02T01:15:25.831Z,0
2023-02-02T01:16:29.533Z,0
2023-02-02T01:17:33.006Z,0
2023-02-02T01:18:36.419Z,0
2023-02-02T01:20:42.973Z,0
2023-02-02T01:21:46.253Z,0
2023-02-02T01:22:49.893Z,0
2023-02-02T01:23:53.547Z,0
2023-02-02T01:26:00.281Z,0
2023-02-02T01:28:06.195Z,0
2023-02-02T01:29:09.291Z,0
2023-02-02T01:31:15.086Z,0
2023-02-02T01:33:20.507Z,0
2023-02-02T01:35:28.618Z,0
2023-02-02T01:36:32.093Z,0
2023-02-02T01:38:38.228Z,0
2023-02-02T01:40:43.744Z,0
2023-02-02T01:42:49.732Z,0
2023-02-02T01:43:52.722Z,0
2023-02-02T01:46:00.860Z,0
2023-02-02T01:47:04.356Z,0
2023-02-02T01:49:10.931Z,0
2023-02-02T01:51:16.841Z,0
2023-02-02T01:53:23.981Z,0
2023-02-02T01:54:27.404Z,0
2023-02-02T01:56:32.672Z,0
2023-02-02T01:57:36.425Z,0
2023-02-02T01:58:40.078Z,0
2023-02-02T01:59:43.081Z,0
2023-02-02T02:01:52.449Z,0
2023-02-02T02:03:58.196Z,0
2023-02-02T02:05:02.022Z,0
2023-02-02T02:07:08.179Z,0
2023-02-02T02:09:14.647Z,0
2023-02-02T02:10:18.015Z,0
2023-02-02T02:12:25.421Z,0
2023-02-02T02:14:31.753Z,0
2023-02-02T02:16:38.293Z,0
2023-02-02T02:17:41.965Z,0
2023-02-02T02:19:48.259Z,0
2023-02-02T02:20:52.384Z,0
2023-02-02T02:21:55.851Z,0
2023-02-02T02:22:59.902Z,0
2023-02-02T02:25:06.697Z,0
2023-02-02T02:26:09.404Z,0
2023-02-02T02:28:16.487Z,0
2023-02-02T02:29:19.594Z,0
2023-02-02T02:31:26.549Z,0
2023-02-02T02:33:32.199Z,0
2023-02-02T02:34:35.219Z,0
2023-02-02T02:36:41.209Z,0
2023-02-02T02:38:48.484Z,0
2023-02-02T02:39:52.182Z,0
2023-02-02T02:41:58.038Z,0
2023-02-02T02:43:00.504Z,0
2023-02-02T02:44:04.255Z,0
2023-02-02T02:45:06.883Z,0
2023-02-02T02:47:12.997Z,0
2023-02-02T02:49:18.696Z,0
2023-02-02T02:50:22.075Z,0
2023-02-02T02:52:28.290Z,0
2023-02-02T02:54:34.879Z,0
2023-02-02T02:55:37.985Z,0
2023-02-02T02:57:45.338Z,0
2023-02-02T02:58:48.784Z,0
2023-02-02T03:00:54.526Z,0
2023-02-02T03:01:58.080Z,0
2023-02-02T03:03:01.419Z,0
2023-02-02T03:04:04.213Z,0
2023-02-02T03:05:07.467Z,0
2023-02-02T03:07:14.708Z,0
2023-02-02T03:09:21.591Z,0
2023-02-02T03:10:24.345Z,0
2023-02-02T03:12:30.569Z,0
2023-02-02T03:14:37.483Z,0
2023-02-02T03:16:43.953Z,0
2023-02-02T03:17:47.022Z,0
2023-02-02T03:19:52.957Z,0
2023-02-02T03:21:59.204Z,0
2023-02-02T03:24:05.342Z,0
2023-02-02T03:25:08.106Z,0
2023-02-02T03:27:15.055Z,0
2023-02-02T03:29:21.378Z,0
2023-02-02T03:31:29.195Z,0
2023-02-02T03:32:33.305Z,0
2023-02-02T03:34:39.744Z,0
2023-02-02T03:36:45.633Z,0
2023-02-02T03:38:51.433Z,0
2023-02-02T03:39:56.227Z,0
2023-02-02T03:42:03.082Z,0
2023-02-02T03:44:09.853Z,0
2023-02-02T03:46:16.243Z,0
2023-02-02T03:47:19.673Z,0
2023-02-02T03:49:26.095Z,0
2023-02-02T03:51:32.539Z,0
2023-02-02T03:53:38.337Z,0
2023-02-02T03:54:41.740Z,0
2023-02-02T03:56:49.306Z,0
2023-02-02T03:58:55.674Z,0
2023-02-02T04:01:01.840Z,0
2023-02-02T04:02:04.898Z,0
2023-02-02T04:04:11.611Z,0
2023-02-02T04:06:17.827Z,0
2023-02-02T04:08:24.509Z,0
2023-02-02T04:09:27.883Z,0
2023-02-02T04:10:31.155Z,0
2023-02-02T04:11:34.506Z,0
2023-02-02T04:13:41.018Z,0
2023-02-02T04:14:44.783Z,0
2023-02-02T04:15:47.860Z,0
2023-02-02T04:16:51.037Z,0
2023-02-02T04:18:57.507Z,0
2023-02-02T04:21:04.645Z,0
2023-02-02T04:22:07.780Z,0
2023-02-02T04:24:13.091Z,0
2023-02-02T04:26:20.357Z,0
2023-02-02T04:28:27.597Z,0
2023-02-02T04:29:30.935Z,0
2023-02-02T04:31:37.508Z,0
2023-02-02T04:33:43.711Z,0
2023-02-02T04:35:49.345Z,0
2023-02-02T04:36:52.630Z,0
2023-02-02T04:38:58.846Z,0
2023-02-02T04:41:05.669Z,0
2023-02-02T04:43:12.176Z,0
2023-02-02T04:44:15.459Z,0
2023-02-02T04:46:21.731Z,0
2023-02-02T04:48:27.815Z,0
2023-02-02T04:50:33.954Z,0
2023-02-02T04:51:37.324Z,0
2023-02-02T04:53:42.867Z,0
2023-02-02T04:55:49.235Z,0
2023-02-02T04:57:56.029Z,0
2023-02-02T04:58:59.830Z,0
2023-02-02T05:01:05.988Z,0
2023-02-02T05:03:12.788Z,0
2023-02-02T05:05:19.659Z,0
2023-02-02T05:06:23.121Z,0
2023-02-02T05:08:29.820Z,0
2023-02-02T05:10:36.417Z,0
2023-02-02T05:12:42.348Z,0
2023-02-02T05:13:45.611Z,0
2023-02-02T05:15:52.530Z,0
2023-02-02T05:18:00.698Z,0
2023-02-02T05:20:07.345Z,0
2023-02-02T05:21:10.377Z,0
2023-02-02T05:23:17.094Z,0
2023-02-02T05:25:23.820Z,0
2023-02-02T05:27:30.959Z,0
2023-02-02T05:28:34.680Z,0
2023-02-02T05:30:41.668Z,0
2023-02-02T05:32:47.536Z,0
2023-02-02T05:34:54.327Z,0
2023-02-02T05:35:57.421Z,0
2023-02-02T05:38:02.513Z,0
2023-02-02T05:40:08.614Z,0
2023-02-02T05:42:15.734Z,0
2023-02-02T05:43:21.812Z,0
2023-02-02T05:45:29.052Z,0
2023-02-02T05:47:35.171Z,0
2023-02-02T05:49:40.956Z,0
2023-02-02T05:50:44.391Z,0
2023-02-02T05:52:49.679Z,0
2023-02-02T05:54:56.556Z,0
2023-02-02T05:55:59.586Z,0
2023-02-02T05:58:05.286Z,0
2023-02-02T06:00:11.964Z,0
2023-02-02T06:02:18.208Z,0
2023-02-02T06:03:22.154Z,0
2023-02-02T06:05:29.590Z,0
2023-02-02T06:07:35.544Z,0
2023-02-02T06:09:42.273Z,0
2023-02-02T06:10:45.652Z,0
2023-02-02T06:12:51.808Z,0
2023-02-02T06:14:56.431Z,0
2023-02-02T06:15:59.814Z,0
2023-02-02T06:17:02.987Z,0
2023-02-02T06:18:06.626Z,0
2023-02-02T06:20:12.794Z,0
2023-02-02T06:22:19.455Z,0
2023-02-02T06:23:22.433Z,0
2023-02-02T06:24:25.427Z,0
2023-02-02T06:25:28.818Z,0
2023-02-02T06:27:35.507Z,0
2023-02-02T06:28:38.592Z,0
2023-02-02T06:30:47.160Z,0
2023-02-02T06:32:53.720Z,0
2023-02-02T06:34:59.982Z,0
2023-02-02T06:36:03.009Z,0
2023-02-02T06:37:06.658Z,0
2023-02-02T06:38:09.824Z,0
2023-02-02T06:40:15.481Z,0
2023-02-02T06:41:19.176Z,0
2023-02-02T06:42:24.215Z,0
2023-02-02T06:43:26.941Z,0
2023-02-02T06:45:32.386Z,1
2023-02-02T06:46:36.552Z,1
2023-02-02T06:47:39.996Z,1
2023-02-02T06:48:42.776Z,1
2023-02-02T06:50:49.786Z,2
2023-02-02T06:51:52.666Z,2
2023-02-02T06:52:56.348Z,2
2023-02-02T06:54:01.644Z,3
2023-02-02T06:56:07.809Z,3
2023-02-02T06:58:14.712Z,4
2023-02-02T06:59:18.043Z,4
2023-02-02T07:01:26.617Z,5
2023-02-02T07:03:32.960Z,6
2023-02-02T07:05:39.158Z,8
2023-02-02T07:06:41.910Z,8
2023-02-02T07:09:04.559Z,8
2023-02-02T07:11:19.166Z,10
2023-02-02T07:13:27.789Z,10
2023-02-02T07:15:34.564Z,10
2023-02-02T07:16:37.678Z,11
2023-02-02T07:17:41.044Z,11
2023-02-02T07:18:44.552Z,11
2023-02-02T07:20:51.320Z,8
2023-02-02T07:21:54.703Z,6
2023-02-02T07:22:58.078Z,7
2023-02-02T07:24:00.973Z,8
2023-02-02T07:26:07.394Z,12
2023-02-02T07:27:09.870Z,15
2023-02-02T07:28:12.921Z,16
2023-02-02T07:29:16.305Z,15
2023-02-02T07:31:23.728Z,12
2023-02-02T07:33:30.201Z,14
2023-02-02T07:34:33.635Z,13
2023-02-02T07:36:40.369Z,14
2023-02-02T07:38:46.779Z,20
2023-02-02T07:40:53.658Z,19
2023-02-02T07:41:57.290Z,19
2023-02-02T07:44:03.143Z,21
2023-02-02T07:45:30.319Z,21
2023-02-02T07:46:35.688Z,24
2023-02-02T07:48:43.605Z,39
2023-02-02T07:50:51.087Z,53
2023-02-02T07:51:54.987Z,43
2023-02-02T07:52:59.103Z,40
2023-02-02T07:54:02.603Z,30
2023-02-02T07:55:16.831Z,29
2023-02-02T07:56:20.285Z,17
2023-02-02T07:58:26.694Z,13
2023-02-02T07:59:33.631Z,12
2023-02-02T08:00:38.214Z,9
2023-02-02T08:01:41.324Z,10
2023-02-02T08:03:48.023Z,12
2023-02-02T08:05:53.837Z,15
2023-02-02T08:06:57.576Z,20
2023-02-02T08:08:00.941Z,25
2023-02-02T08:09:04.616Z,32
2023-02-02T08:11:11.186Z,40
2023-02-02T08:13:17.828Z,40
2023-02-02T08:14:21.309Z,43
2023-02-02T08:15:27.455Z,50
2023-02-02T08:16:31.789Z,92
2023-02-02T08:18:37.871Z,166
2023-02-02T08:20:44.503Z,117
2023-02-02T08:22:51.740Z,89
2023-02-02T08:23:55.207Z,88
2023-02-02T08:26:01.680Z,89
2023-02-02T08:28:08.241Z,191
2023-02-02T08:30:14.806Z,199
2023-02-02T08:31:19.259Z,206
2023-02-02T08:33:25.767Z,204
2023-02-02T08:35:32.211Z,204
2023-02-02T08:37:37.518Z,185
2023-02-02T08:38:41.311Z,210
2023-02-02T08:40:48.402Z,256
2023-02-02T08:42:56.122Z,365
2023-02-02T08:43:59.086Z,370
2023-02-02T08:46:07.688Z,373
2023-02-02T08:48:16.207Z,242
2023-02-02T08:50:22.631Z,156
2023-02-02T08:51:25.993Z,146
2023-02-02T08:53:32.228Z,167
2023-02-02T08:55:39.218Z,342
2023-02-02T08:57:46.007Z,402
2023-02-02T08:58:49.802Z,551
2023-02-02T09:00:56.299Z,471
2023-02-02T09:03:03.401Z,460
2023-02-02T09:05:10.690Z,465
2023-02-02T09:06:14.356Z,427
2023-02-02T09:08:24.224Z,606
2023-02-02T09:10:30.718Z,177
2023-02-02T09:11:33.849Z,238
2023-02-02T09:12:37.860Z,470
2023-02-02T09:13:41.554Z,658
2023-02-02T09:15:48.911Z,72
2023-02-02T09:17:55.516Z,49
2023-02-02T09:18:58.943Z,37
2023-02-02T09:21:05.311Z,29
2023-02-02T09:23:11.819Z,25
2023-02-02T09:25:18.613Z,26
2023-02-02T09:26:22.259Z,30
2023-02-02T09:28:29.657Z,33
2023-02-02T09:30:36.837Z,36
2023-02-02T09:32:44.006Z,34
2023-02-02T09:33:47.365Z,34
2023-02-02T09:35:54.921Z,34
2023-02-02T09:38:02.055Z,31
2023-02-02T09:39:06.087Z,29
2023-02-02T09:40:09.460Z,30
2023-02-02T09:41:12.823Z,30
2023-02-02T09:42:16.538Z,34
2023-02-02T09:44:23.579Z,39
2023-02-02T09:46:32.914Z,41
2023-02-02T09:47:36.095Z,52
2023-02-02T09:49:42.249Z,41
2023-02-02T09:50:46.276Z,46
2023-02-02T09:51:50.328Z,43
2023-02-02T09:52:53.686Z,47
2023-02-02T09:55:01.573Z,64
2023-02-02T09:56:04.860Z,80
2023-02-02T09:58:12.071Z,110
2023-02-02T09:59:26.162Z,125
2023-02-02T10:00:29.368Z,368
2023-02-02T10:02:36.926Z,742
2023-02-02T10:03:40.044Z,750
2023-02-02T10:05:46.206Z,750
2023-02-02T10:07:52.028Z,757
2023-02-02T10:08:55.252Z,759
2023-02-02T10:11:02.444Z,784
2023-02-02T10:12:05.493Z,793
2023-02-02T10:14:13.123Z,788
2023-02-02T10:15:16.808Z,788
2023-02-02T10:17:24.247Z,772
2023-02-02T10:19:30.963Z,788
2023-02-02T10:20:34.259Z,787
2023-02-02T10:22:40.683Z,828
2023-02-02T10:24:47.228Z,705
2023-02-02T10:25:50.609Z,521
2023-02-02T10:27:57.051Z,815
2023-02-02T10:29:00.662Z,799
2023-02-02T10:30:04.160Z,855
2023-02-02T10:31:08.419Z,408
2023-02-02T10:32:11.712Z,337
2023-02-02T10:34:17.643Z,146
2023-02-02T10:36:24.292Z,236
2023-02-02T10:37:27.451Z,825
2023-02-02T10:39:33.965Z,190
2023-02-02T10:40:37.767Z,198
2023-02-02T10:41:41.324Z,163
2023-02-02T10:42:44.050Z,209
2023-02-02T10:43:47.162Z,93
2023-02-02T10:44:50.820Z,91
2023-02-02T10:45:54.996Z,88
2023-02-02T10:48:01.544Z,57
2023-02-02T10:49:05.123Z,57
2023-02-02T10:51:11.317Z,62
2023-02-02T10:53:19.124Z,85
2023-02-02T10:54:23.140Z,93
2023-02-02T10:56:30.034Z,81
2023-02-02T10:57:33.804Z,83
2023-02-02T10:58:37.437Z,85
2023-02-02T10:59:40.821Z,88
2023-02-02T11:01:47.328Z,96
2023-02-02T11:02:50.859Z,103
2023-02-02T11:04:58.354Z,135
2023-02-02T11:07:04.112Z,197
2023-02-02T11:09:10.736Z,306
2023-02-02T11:10:13.213Z,439
2023-02-02T11:12:20.024Z,815
2023-02-02T11:14:25.889Z,808
2023-02-02T11:16:46.839Z,753
2023-02-02T11:17:51.054Z,656
2023-02-02T11:18:54.793Z,330
2023-02-02T11:19:57.628Z,515
2023-02-02T11:22:04.507Z,350
2023-02-02T11:23:08.318Z,226
2023-02-02T11:25:14.979Z,221
2023-02-02T11:27:21.590Z,324
2023-02-02T11:29:28.746Z,133
2023-02-02T11:30:31.776Z,188
2023-02-02T11:32:39.534Z,224
2023-02-02T11:34:45.403Z,171
2023-02-02T11:35:48.595Z,590
2023-02-02T11:37:56.367Z,264
2023-02-02T11:40:03.208Z,156
2023-02-02T11:41:06.158Z,170
2023-02-02T11:42:09.775Z,684
2023-02-02T11:43:13.009Z,203
2023-02-02T11:45:18.178Z,228
2023-02-02T11:46:23.071Z,189
2023-02-02T11:48:29.606Z,169
2023-02-02T11:50:35.875Z,211
2023-02-02T11:52:42.486Z,500
2023-02-02T11:53:45.869Z,170
2023-02-02T11:55:52.380Z,305
2023-02-02T11:57:59.080Z,587
2023-02-02T11:59:02.721Z,114
2023-02-02T12:01:09.457Z,130
2023-02-02T12:02:13.057Z,309
2023-02-02T12:04:19.627Z,167
2023-02-02T12:06:26.887Z,141
2023-02-02T12:07:30.326Z,691
2023-02-02T12:09:36.866Z,624
2023-02-02T12:11:43.836Z,114
2023-02-02T12:12:47.271Z,251
2023-02-02T12:14:53.431Z,717
2023-02-02T12:15:57.760Z,252
2023-02-02T12:18:04.098Z,102
2023-02-02T12:20:11.761Z,680
2023-02-02T12:21:15.195Z,670
2023-02-02T12:23:22.721Z,111
2023-02-02T12:25:29.593Z,690
2023-02-02T12:26:33.129Z,706
2023-02-02T12:27:36.540Z,715
2023-02-02T12:28:39.931Z,700
2023-02-02T12:29:43.271Z,165
2023-02-02T12:30:47.000Z,742
2023-02-02T12:31:50.600Z,749
2023-02-02T12:33:58.553Z,747
2023-02-02T12:35:01.573Z,708
2023-02-02T12:37:08.352Z,658
2023-02-02T12:38:11.396Z,666
2023-02-02T12:40:17.376Z,705
2023-02-02T12:42:25.103Z,726
2023-02-02T12:43:28.768Z,728
2023-02-02T12:45:36.230Z,733
2023-02-02T12:47:42.388Z,658
2023-02-02T12:48:45.488Z,628
2023-02-02T12:50:52.527Z,541
2023-02-02T12:52:59.010Z,608
2023-02-02T12:54:58.496Z,571
2023-02-02T12:56:03.209Z,574
2023-02-02T12:57:08.095Z,540
2023-02-02T12:59:14.549Z,488
2023-02-02T13:01:22.440Z,603
2023-02-02T13:02:25.524Z,618
2023-02-02T13:04:32.508Z,468
2023-02-02T13:05:36.271Z,413
2023-02-02T13:07:42.908Z,561
2023-02-02T13:09:50.539Z,406
2023-02-02T13:10:54.290Z,524
2023-02-02T13:11:57.804Z,353
2023-02-02T13:13:01.183Z,299
2023-02-02T13:15:07.831Z,294
2023-02-02T13:16:11.217Z,231
2023-02-02T13:17:14.657Z,505
2023-02-02T13:18:18.651Z,527
2023-02-02T13:20:27.416Z,570
2023-02-02T13:21:30.664Z,471
2023-02-02T13:22:34.368Z,481
2023-02-02T13:23:38.167Z,419
2023-02-02T13:25:45.127Z,352
2023-02-02T13:26:49.515Z,388
2023-02-02T13:28:56.777Z,273
2023-02-02T13:31:07.599Z,336
2023-02-02T13:32:11.171Z,305
2023-02-02T13:34:17.735Z,279
2023-02-02T13:35:20.569Z,271
2023-02-02T13:36:25.356Z,316
2023-02-02T13:37:29.059Z,375
2023-02-02T13:39:36.243Z,281
2023-02-02T13:40:40.868Z,348
2023-02-02T13:42:46.949Z,387
2023-02-02T13:44:53.791Z,108
2023-02-02T13:45:57.107Z,205
2023-02-02T13:48:04.333Z,274
2023-02-02T13:50:12.094Z,239
2023-02-02T13:51:15.806Z,207
2023-02-02T13:53:21.890Z,135
2023-02-02T13:54:25.267Z,143
2023-02-02T13:56:33.167Z,139
2023-02-02T13:57:35.942Z,136
2023-02-02T13:58:39.566Z,115
2023-02-02T13:59:43.352Z,108
2023-02-02T14:00:47.027Z,106
2023-02-02T14:02:54.937Z,89
2023-02-02T14:05:01.065Z,96
2023-02-02T14:06:05.126Z,88
2023-02-02T14:08:12.037Z,80
2023-02-02T14:10:18.509Z,85
2023-02-02T14:11:22.227Z,79
2023-02-02T14:13:29.089Z,78
2023-02-02T14:15:36.573Z,78
2023-02-02T14:17:43.400Z,74
2023-02-02T14:18:46.498Z,74
2023-02-02T14:20:52.716Z,77
2023-02-02T14:22:59.796Z,70
2023-02-02T14:25:06.515Z,73
2023-02-02T14:26:10.260Z,74
2023-02-02T14:28:16.898Z,73
2023-02-02T14:29:19.929Z,73
2023-02-02T14:31:31.093Z,73
2023-02-02T14:33:38.359Z,72
2023-02-02T14:35:45.114Z,71
2023-02-02T14:36:47.570Z,69
2023-02-02T14:38:54.439Z,64
2023-02-02T14:39:58.192Z,63
2023-02-02T14:42:05.508Z,63
2023-02-02T14:44:12.566Z,61
2023-02-02T14:45:16.286Z,60
2023-02-02T14:47:23.863Z,56
2023-02-02T14:49:31.447Z,53
2023-02-02T14:50:34.218Z,52
2023-02-02T14:52:40.467Z,50
2023-02-02T14:53:44.133Z,49
2023-02-02T14:54:47.785Z,48
2023-02-02T14:55:50.973Z,48
2023-02-02T14:57:57.501Z,47
2023-02-02T14:59:01.046Z,46
2023-02-02T15:01:07.249Z,45
2023-02-02T15:02:10.988Z,44
2023-02-02T15:04:18.561Z,42
2023-02-02T15:05:21.329Z,41
2023-02-02T15:07:28.008Z,39
2023-02-02T15:09:34.526Z,36
2023-02-02T15:10:37.791Z,35
2023-02-02T15:12:44.286Z,33
2023-02-02T15:14:50.167Z,31
2023-02-02T15:15:53.442Z,30
2023-02-02T15:18:03.259Z,28
2023-02-02T15:20:10.110Z,26
2023-02-02T15:21:13.768Z,24
2023-02-02T15:23:21.185Z,22
2023-02-02T15:25:29.129Z,20
2023-02-02T15:26:32.868Z,20
2023-02-02T15:27:51.580Z,19
2023-02-02T15:28:59.835Z,19
2023-02-02T15:31:08.773Z,18
2023-02-02T15:33:14.395Z,17
2023-02-02T15:34:17.319Z,17
2023-02-02T15:36:24.065Z,15
2023-02-02T15:38:30.788Z,13
2023-02-02T15:39:34.158Z,12
2023-02-02T15:41:41.246Z,10
2023-02-02T15:43:46.627Z,9
2023-02-02T15:44:49.722Z,8
2023-02-02T15:45:53.133Z,8
2023-02-02T15:46:57.931Z,7
2023-02-02T15:49:04.839Z,6
2023-02-02T15:51:12.060Z,5
2023-02-02T15:52:15.210Z,5
2023-02-02T15:54:22.117Z,4
2023-02-02T15:56:31.124Z,3
2023-02-02T15:58:37.547Z,3
2023-02-02T15:59:40.301Z,2
2023-02-02T16:01:47.204Z,2
2023-02-02T16:03:53.484Z,1
2023-02-02T16:06:00.338Z,1
2023-02-02T16:07:03.797Z,1
2023-02-02T16:09:12.371Z,1
2023-02-02T16:11:19.536Z,0
2023-02-02T16:12:22.946Z,0
2023-02-02T16:14:29.506Z,0
2023-02-02T16:16:38.025Z,0
2023-02-02T16:18:45.158Z,0
2023-02-02T16:19:48.469Z,0
2023-02-02T16:21:55.441Z,0
2023-02-02T16:24:01.556Z,0
2023-02-02T16:26:08.452Z,0
2023-02-02T16:27:11.568Z,0
2023-02-02T16:29:18.157Z,0
2023-02-02T16:31:24.952Z,0
2023-02-02T16:32:28.996Z,0
2023-02-02T16:33:32.633Z,0
2023-02-02T16:34:36.709Z,0
2023-02-02T16:36:43.945Z,0
2023-02-02T16:37:46.820Z,0
2023-02-02T16:39:52.971Z,0
2023-02-02T16:40:56.266Z,0
2023-02-02T16:41:59.868Z,0
2023-02-02T16:43:03.192Z,0
2023-02-02T16:45:08.882Z,0
2023-02-02T16:46:12.592Z,0
2023-02-02T16:47:15.763Z,0
2023-02-02T16:48:19.316Z,0
2023-02-02T16:50:25.607Z,0
2023-02-02T16:51:28.662Z,0
2023-02-02T16:52:31.805Z,0
2023-02-02T16:53:35.230Z,0
2023-02-02T16:55:54.213Z,0
2023-02-02T16:58:00.408Z,0
2023-02-02T16:59:04.677Z,0
2023-02-02T17:01:19.233Z,0
2023-02-02T17:03:25.881Z,0
2023-02-02T17:04:29.605Z,0
2023-02-02T17:05:32.937Z,0
2023-02-02T17:06:55.378Z,0
2023-02-02T17:09:02.558Z,0
2023-02-02T17:11:08.884Z,0
2023-02-02T17:12:36.333Z,0
2023-02-02T17:13:40.316Z,0
2023-02-02T17:14:43.697Z,0
2023-02-02T17:16:50.032Z,0
2023-02-02T17:18:57.478Z,0
2023-02-02T17:21:04.393Z,0
2023-02-02T17:22:07.480Z,0
2023-02-02T17:24:13.139Z,0
2023-02-02T17:26:20.329Z,0
2023-02-02T17:27:23.501Z,0
2023-02-02T17:28:26.623Z,0
2023-02-02T17:29:30.310Z,0
2023-02-02T17:31:38.282Z,0
2023-02-02T17:32:41.463Z,0
2023-02-02T17:33:44.894Z,0
2023-02-02T17:34:48.425Z,0
2023-02-02T17:35:58.133Z,0
2023-02-02T17:37:01.879Z,0
2023-02-02T17:39:09.097Z,0
2023-02-02T17:40:13.263Z,0
2023-02-02T17:41:16.924Z,0
2023-02-02T17:42:19.907Z,0
2023-02-02T17:44:26.645Z,0
2023-02-02T17:45:33.927Z,0
2023-02-02T17:46:40.885Z,0
2023-02-02T17:47:44.916Z,0
2023-02-02T17:49:51.800Z,0
2023-02-02T17:51:57.557Z,0
2023-02-02T17:53:01.640Z,0
2023-02-02T17:55:08.410Z,0
2023-02-02T17:57:15.295Z,0
2023-02-02T17:59:21.457Z,0
2023-02-02T18:00:28.109Z,0
2023-02-02T18:01:34.025Z,0
2023-02-02T18:02:38.373Z,0
2023-02-02T18:04:47.665Z,0
2023-02-02T18:05:51.566Z,0
2023-02-02T18:06:54.690Z,0
2023-02-02T18:07:58.048Z,0
2023-02-02T18:10:04.644Z,0
2023-02-02T18:12:11.609Z,0
2023-02-02T18:13:14.977Z,0
2023-02-02T18:15:21.573Z,0
2023-02-02T18:17:27.823Z,0
2023-02-02T18:19:34.163Z,0
2023-02-02T18:20:36.891Z,0
2023-02-02T18:22:42.925Z,0
2023-02-02T18:24:49.606Z,0
2023-02-02T18:26:57.439Z,0
2023-02-02T18:28:01.326Z,0
2023-02-02T18:30:07.743Z,0
2023-02-02T18:32:14.649Z,0
2023-02-02T18:34:20.911Z,0
2023-02-02T18:35:26.889Z,0
2023-02-02T18:37:33.332Z,0
2023-02-02T18:39:39.211Z,0
2023-02-02T18:41:46.000Z,0
2023-02-02T18:42:50.071Z,0
2023-02-02T18:44:56.888Z,0
2023-02-02T18:47:04.107Z,0
2023-02-02T18:49:10.300Z,0
2023-02-02T18:50:13.791Z,0
2023-02-02T18:52:20.907Z,0
2023-02-02T18:54:27.693Z,0
2023-02-02T18:56:35.176Z,0
2023-02-02T18:57:38.278Z,0
2023-02-02T18:59:45.142Z,0
2023-02-02T19:01:51.885Z,0
2023-02-02T19:03:57.755Z,0
2023-02-02T19:05:01.186Z,0
2023-02-02T19:06:04.915Z,0
2023-02-02T19:07:08.550Z,0
2023-02-02T19:09:14.422Z,0
2023-02-02T19:10:17.387Z,0
2023-02-02T19:11:20.574Z,0
2023-02-02T19:12:24.288Z,0
2023-02-02T19:14:30.135Z,0
2023-02-02T19:15:33.544Z,0
2023-02-02T19:17:39.522Z,0
2023-02-02T19:19:45.158Z,0
2023-02-02T19:21:50.643Z,0
2023-02-02T19:22:53.739Z,0
2023-02-02T19:25:00.105Z,0
2023-02-02T19:27:06.511Z,0
2023-02-02T19:28:09.968Z,0
2023-02-02T19:30:16.729Z,0
2023-02-02T19:32:24.461Z,0
2023-02-02T19:33:27.213Z,0
2023-02-02T19:35:33.492Z,0
2023-02-02T19:37:40.298Z,0
2023-02-02T19:38:43.721Z,0
2023-02-02T19:40:50.087Z,0
2023-02-02T19:41:53.532Z,0
2023-02-02T19:42:56.905Z,0
2023-02-02T19:44:00.375Z,0
2023-02-02T19:46:07.111Z,0
2023-02-02T19:47:11.208Z,0
2023-02-02T19:49:17.733Z,0
2023-02-02T19:51:23.822Z,0
2023-02-02T19:53:30.152Z,0
2023-02-02T19:54:33.563Z,0
2023-02-02T19:56:39.428Z,0
2023-02-02T19:57:42.474Z,0
2023-02-02T19:58:45.924Z,0
2023-02-02T19:59:50.028Z,0
2023-02-02T20:01:56.657Z,0
2023-02-02T20:03:00.623Z,0
2023-02-02T20:04:03.998Z,0
2023-02-02T20:05:07.438Z,0
2023-02-02T20:07:14.098Z,0
2023-02-02T20:08:17.463Z,0
2023-02-02T20:09:20.656Z,0
2023-02-02T20:10:25.071Z,0
2023-02-02T20:12:32.236Z,0
2023-02-02T20:13:35.880Z,0
2023-02-02T20:15:42.182Z,0
2023-02-02T20:17:49.185Z,0
2023-02-02T20:18:52.958Z,0
2023-02-02T20:19:56.352Z,0
2023-02-02T20:21:00.083Z,0
2023-02-02T20:23:07.216Z,0
2023-02-02T20:24:10.192Z,0
2023-02-02T20:26:17.619Z,0
2023-02-02T20:28:23.347Z,0
2023-02-02T20:29:26.725Z,0
2023-02-02T20:31:33.997Z,0
2023-02-02T20:33:41.185Z,0
2023-02-02T20:34:44.392Z,0
2023-02-02T20:36:50.798Z,0
2023-02-02T20:38:57.530Z,0
2023-02-02T20:40:00.903Z,0
2023-02-02T20:42:07.654Z,0
2023-02-02T20:44:14.100Z,0
2023-02-02T20:46:21.372Z,0
2023-02-02T20:47:24.856Z,0
2023-02-02T20:49:31.946Z,0
2023-02-02T20:51:39.721Z,0
2023-02-02T20:52:42.745Z,0
2023-02-02T20:53:45.731Z,0
2023-02-02T20:54:49.171Z,0
2023-02-02T20:56:55.320Z,0
2023-02-02T20:59:01.778Z,0
2023-02-02T21:00:05.083Z,0
2023-02-02T21:02:12.781Z,0
2023-02-02T21:04:19.362Z,0
2023-02-02T21:06:29.404Z,0
2023-02-02T21:07:33.463Z,0
2023-02-02T21:09:40.255Z,0
2023-02-02T21:11:46.420Z,0
2023-02-02T21:13:57.316Z,0
2023-02-02T21:15:00.447Z,0
2023-02-02T21:16:03.268Z,0
2023-02-02T21:17:18.511Z,0
2023-02-02T21:19:25.367Z,0
2023-02-02T21:21:34.317Z,0
2023-02-02T21:22:37.500Z,0
2023-02-02T21:24:43.262Z,0
2023-02-02T21:26:54.347Z,0
2023-02-02T21:27:57.970Z,0
2023-02-02T21:29:01.102Z,0
2023-02-02T21:30:04.854Z,0
2023-02-02T21:31:09.514Z,0
2023-02-02T21:32:13.826Z,0
2023-02-02T21:34:20.299Z,0
2023-02-02T21:35:23.413Z,0
2023-02-02T21:36:26.527Z,0
2023-02-02T21:37:29.915Z,0
2023-02-02T21:39:36.161Z,0
2023-02-02T21:40:39.850Z,0
2023-02-02T21:41:42.629Z,0
2023-02-02T21:42:45.338Z,0
2023-02-02T21:44:51.820Z,0
2023-02-02T21:45:55.176Z,0
2023-02-02T21:46:57.085Z,0
2023-02-02T21:48:00.523Z,0
2023-02-02T21:50:06.986Z,0
2023-02-02T21:51:10.285Z,0
2023-02-02T21:53:17.101Z,0
2023-02-02T21:55:23.917Z,0
2023-02-02T21:56:27.337Z,0
2023-02-02T21:57:30.431Z,0
2023-02-02T21:58:34.092Z,0
2023-02-02T22:00:40.343Z,0
2023-02-02T22:01:45.189Z,0
2023-02-02T22:02:48.968Z,0
2023-02-02T22:03:52.643Z,0
2023-02-02T22:06:00.010Z,0
2023-02-02T22:07:03.418Z,0
2023-02-02T22:09:09.546Z,0
2023-02-02T22:11:15.383Z,0
2023-02-02T22:12:18.234Z,0
2023-02-02T22:13:21.262Z,0
2023-02-02T22:14:24.945Z,0
2023-02-02T22:16:31.027Z,0
2023-02-02T22:17:33.890Z,0
2023-02-02T22:19:40.116Z,0
2023-02-02T22:21:46.600Z,0
2023-02-02T22:23:52.552Z,0
2023-02-02T22:24:55.119Z,0
2023-02-02T22:27:01.835Z,0
2023-02-02T22:29:08.944Z,0
2023-02-02T22:30:11.399Z,0
2023-02-02T22:32:18.596Z,0
2023-02-02T22:34:24.806Z,0
2023-02-02T22:36:31.159Z,0
2023-02-02T22:37:34.908Z,0
2023-02-02T22:39:41.625Z,0
2023-02-02T22:41:48.726Z,0
2023-02-02T22:43:55.227Z,0
2023-02-02T22:44:58.553Z,0
2023-02-02T22:47:05.826Z,0
2023-02-02T22:49:12.817Z,0
2023-02-02T22:51:18.477Z,0
2023-02-02T22:52:20.949Z,0
2023-02-02T22:54:27.328Z,0
2023-02-02T22:56:33.503Z,0
2023-02-02T22:58:39.739Z,0
2023-02-02T22:59:42.459Z,0
2023-02-02T23:01:48.302Z,0
2023-02-02T23:03:55.552Z,0
2023-02-02T23:06:01.673Z,0
2023-02-02T23:07:05.349Z,0
2023-02-02T23:09:11.777Z,0
2023-02-02T23:11:17.666Z,0
2023-02-02T23:13:24.684Z,0
2023-02-02T23:14:27.676Z,0
2023-02-02T23:15:30.750Z,0
2023-02-02T23:16:33.361Z,0
2023-02-02T23:18:39.122Z,0
2023-02-02T23:19:42.765Z,0
2023-02-02T23:20:45.542Z,0
2023-02-02T23:21:49.199Z,0
2023-02-02T23:23:55.608Z,0
2023-02-02T23:24:58.707Z,0
2023-02-02T23:26:02.152Z,0
2023-02-02T23:27:05.435Z,0
2023-02-02T23:29:13.365Z,0
2023-02-02T23:31:20.629Z,0
2023-02-02T23:32:24.415Z,0
2023-02-02T23:34:30.481Z,0
2023-02-02T23:36:37.359Z,0
2023-02-02T23:38:43.502Z,0